sensor_id;sensor_type;location;lat;lon;timestamp;P1;durP1;ratioP1;P2;durP2;ratioP2
15385;SDS011;7791;47.246;9.648;2023-11-19T00:01:00;5.70;;;2.47;;
15385;SDS011;7791;47.246;9.648;2023-11-19T00:03:55;3.87;;;2.73;;
15385;SDS011;7791;47.246;9.648;2023-11-19T00:06:34;4.57;;;2.90;;
15385;SDS011;7791;47.246;9.648;2023-11-19T00:09:09;4.23;;;2.53;;
15385;SDS011;7791;47.246;9.648;2023-11-19T00:11:55;6.20;;;2.73;;
15385;SDS011;7791;47.246;9.648;2023-11-19T00:14:24;4.20;;;3.27;;
15385;SDS011;7791;47.246;9.648;2023-11-19T00:16:59;3.87;;;2.77;;
15385;SDS011;7791;47.246;9.648;2023-11-19T00:19:43;3.30;;;2.70;;
15385;SDS011;7791;47.246;9.648;2023-11-19T00:22:22;5.47;;;3.10;;
15385;SDS011;7791;47.246;9.648;2023-11-19T00:25:05;5.43;;;3.10;;
15385;SDS011;7791;47.246;9.648;2023-11-19T00:27:48;3.90;;;2.53;;
15385;SDS011;7791;47.246;9.648;2023-11-19T00:30:18;7.80;;;4.50;;
15385;SDS011;7791;47.246;9.648;2023-11-19T00:33:14;6.10;;;4.23;;
15385;SDS011;7791;47.246;9.648;2023-11-19T00:35:50;6.13;;;3.70;;
15385;SDS011;7791;47.246;9.648;2023-11-19T00:38:27;5.27;;;3.47;;
15385;SDS011;7791;47.246;9.648;2023-11-19T00:41:04;5.77;;;3.60;;
15385;SDS011;7791;47.246;9.648;2023-11-19T00:43:44;5.83;;;3.17;;
15385;SDS011;7791;47.246;9.648;2023-11-19T00:48:59;5.10;;;3.90;;
15385;SDS011;7791;47.246;9.648;2023-11-19T00:54:40;7.70;;;4.00;;
15385;SDS011;7791;47.246;9.648;2023-11-19T00:57:18;4.93;;;3.67;;
15385;SDS011;7791;47.246;9.648;2023-11-19T00:59:50;6.57;;;4.23;;
15385;SDS011;7791;47.246;9.648;2023-11-19T01:02:23;6.47;;;3.70;;
15385;SDS011;7791;47.246;9.648;2023-11-19T01:05:09;6.87;;;3.73;;
15385;SDS011;7791;47.246;9.648;2023-11-19T01:08:10;6.17;;;3.60;;
15385;SDS011;7791;47.246;9.648;2023-11-19T01:10:53;4.47;;;3.27;;
15385;SDS011;7791;47.246;9.648;2023-11-19T01:13:36;5.60;;;3.27;;
15385;SDS011;7791;47.246;9.648;2023-11-19T01:16:22;4.77;;;3.60;;
15385;SDS011;7791;47.246;9.648;2023-11-19T01:18:55;4.87;;;3.57;;
15385;SDS011;7791;47.246;9.648;2023-11-19T01:21:38;4.47;;;3.80;;
15385;SDS011;7791;47.246;9.648;2023-11-19T01:24:38;4.90;;;3.53;;
15385;SDS011;7791;47.246;9.648;2023-11-19T01:30:16;5.60;;;3.43;;
15385;SDS011;7791;47.246;9.648;2023-11-19T01:32:51;5.30;;;3.57;;
15385;SDS011;7791;47.246;9.648;2023-11-19T01:38:23;7.60;;;5.43;;
15385;SDS011;7791;47.246;9.648;2023-11-19T01:40:57;7.10;;;4.87;;
15385;SDS011;7791;47.246;9.648;2023-11-19T01:43:34;9.97;;;5.00;;
15385;SDS011;7791;47.246;9.648;2023-11-19T01:46:09;11.90;;;6.03;;
15385;SDS011;7791;47.246;9.648;2023-11-19T01:51:48;8.13;;;5.10;;
15385;SDS011;7791;47.246;9.648;2023-11-19T01:54:28;6.57;;;4.20;;
15385;SDS011;7791;47.246;9.648;2023-11-19T01:57:01;6.00;;;4.10;;
15385;SDS011;7791;47.246;9.648;2023-11-19T01:59:54;7.07;;;5.20;;
15385;SDS011;7791;47.246;9.648;2023-11-19T02:02:38;7.93;;;5.27;;
15385;SDS011;7791;47.246;9.648;2023-11-19T02:05:24;9.37;;;6.00;;
15385;SDS011;7791;47.246;9.648;2023-11-19T02:08:06;9.13;;;5.47;;
15385;SDS011;7791;47.246;9.648;2023-11-19T02:13:30;8.77;;;5.50;;
15385;SDS011;7791;47.246;9.648;2023-11-19T02:21:48;9.53;;;4.97;;
15385;SDS011;7791;47.246;9.648;2023-11-19T02:24:36;5.20;;;4.13;;
15385;SDS011;7791;47.246;9.648;2023-11-19T02:30:00;5.20;;;4.30;;
15385;SDS011;7791;47.246;9.648;2023-11-19T02:32:40;5.37;;;4.40;;
15385;SDS011;7791;47.246;9.648;2023-11-19T02:35:20;6.07;;;4.80;;
15385;SDS011;7791;47.246;9.648;2023-11-19T02:38:10;6.43;;;4.67;;
15385;SDS011;7791;47.246;9.648;2023-11-19T02:41:05;4.63;;;3.67;;
15385;SDS011;7791;47.246;9.648;2023-11-19T02:46:35;5.57;;;4.23;;
15385;SDS011;7791;47.246;9.648;2023-11-19T02:49:21;5.57;;;4.10;;
15385;SDS011;7791;47.246;9.648;2023-11-19T02:51:57;3.30;;;2.23;;
15385;SDS011;7791;47.246;9.648;2023-11-19T02:54:35;4.07;;;2.87;;
15385;SDS011;7791;47.246;9.648;2023-11-19T02:57:16;4.60;;;3.00;;
15385;SDS011;7791;47.246;9.648;2023-11-19T02:59:53;5.90;;;2.87;;
15385;SDS011;7791;47.246;9.648;2023-11-19T03:02:40;3.23;;;2.70;;
15385;SDS011;7791;47.246;9.648;2023-11-19T03:05:40;5.03;;;2.70;;
15385;SDS011;7791;47.246;9.648;2023-11-19T03:08:28;3.00;;;2.50;;
15385;SDS011;7791;47.246;9.648;2023-11-19T03:11:04;2.70;;;2.00;;
15385;SDS011;7791;47.246;9.648;2023-11-19T03:13:32;3.17;;;2.30;;
15385;SDS011;7791;47.246;9.648;2023-11-19T03:16:24;3.93;;;2.83;;
15385;SDS011;7791;47.246;9.648;2023-11-19T03:19:15;3.73;;;2.97;;
15385;SDS011;7791;47.246;9.648;2023-11-19T03:22:10;11.13;;;3.43;;
15385;SDS011;7791;47.246;9.648;2023-11-19T03:24:55;4.63;;;3.50;;
15385;SDS011;7791;47.246;9.648;2023-11-19T03:27:21;4.37;;;2.97;;
15385;SDS011;7791;47.246;9.648;2023-11-19T03:29:46;4.87;;;3.33;;
15385;SDS011;7791;47.246;9.648;2023-11-19T03:32:14;3.90;;;3.23;;
15385;SDS011;7791;47.246;9.648;2023-11-19T03:34:55;4.03;;;3.37;;
15385;SDS011;7791;47.246;9.648;2023-11-19T03:37:31;4.77;;;3.73;;
15385;SDS011;7791;47.246;9.648;2023-11-19T03:40:06;6.30;;;4.60;;
15385;SDS011;7791;47.246;9.648;2023-11-19T03:42:48;2.40;;;2.20;;
15385;SDS011;7791;47.246;9.648;2023-11-19T03:45:27;3.07;;;2.30;;
15385;SDS011;7791;47.246;9.648;2023-11-19T03:48:21;2.83;;;2.53;;
15385;SDS011;7791;47.246;9.648;2023-11-19T03:51:18;3.33;;;2.60;;
15385;SDS011;7791;47.246;9.648;2023-11-19T03:53:58;3.53;;;2.70;;
15385;SDS011;7791;47.246;9.648;2023-11-19T03:56:33;3.77;;;2.80;;
15385;SDS011;7791;47.246;9.648;2023-11-19T03:59:10;4.33;;;2.90;;
15385;SDS011;7791;47.246;9.648;2023-11-19T04:01:58;3.70;;;2.73;;
15385;SDS011;7791;47.246;9.648;2023-11-19T04:04:30;3.07;;;2.60;;
15385;SDS011;7791;47.246;9.648;2023-11-19T04:07:11;3.37;;;2.60;;
15385;SDS011;7791;47.246;9.648;2023-11-19T04:12:42;5.00;;;3.00;;
15385;SDS011;7791;47.246;9.648;2023-11-19T04:15:18;6.03;;;2.83;;
15385;SDS011;7791;47.246;9.648;2023-11-19T04:18:28;4.23;;;2.87;;
15385;SDS011;7791;47.246;9.648;2023-11-19T04:20:59;3.90;;;2.90;;
15385;SDS011;7791;47.246;9.648;2023-11-19T04:23:38;3.53;;;2.80;;
15385;SDS011;7791;47.246;9.648;2023-11-19T04:26:18;7.10;;;2.67;;
15385;SDS011;7791;47.246;9.648;2023-11-19T04:28:45;2.93;;;2.50;;
15385;SDS011;7791;47.246;9.648;2023-11-19T04:31:38;3.17;;;2.43;;
15385;SDS011;7791;47.246;9.648;2023-11-19T04:34:14;4.67;;;3.00;;
15385;SDS011;7791;47.246;9.648;2023-11-19T04:36:54;3.40;;;3.10;;
15385;SDS011;7791;47.246;9.648;2023-11-19T04:39:31;3.47;;;3.10;;
15385;SDS011;7791;47.246;9.648;2023-11-19T04:42:02;5.47;;;2.93;;
15385;SDS011;7791;47.246;9.648;2023-11-19T04:44:28;3.77;;;2.90;;
15385;SDS011;7791;47.246;9.648;2023-11-19T04:47:02;3.70;;;2.90;;
15385;SDS011;7791;47.246;9.648;2023-11-19T04:49:51;3.67;;;2.53;;
15385;SDS011;7791;47.246;9.648;2023-11-19T04:55:25;4.33;;;3.33;;
15385;SDS011;7791;47.246;9.648;2023-11-19T04:58:04;6.23;;;3.33;;
15385;SDS011;7791;47.246;9.648;2023-11-19T05:00:42;4.33;;;3.30;;
15385;SDS011;7791;47.246;9.648;2023-11-19T05:03:16;5.33;;;3.10;;
15385;SDS011;7791;47.246;9.648;2023-11-19T05:05:56;4.67;;;3.30;;
15385;SDS011;7791;47.246;9.648;2023-11-19T05:08:43;3.73;;;3.10;;
15385;SDS011;7791;47.246;9.648;2023-11-19T05:14:27;7.73;;;3.70;;
15385;SDS011;7791;47.246;9.648;2023-11-19T05:17:05;4.23;;;3.27;;
15385;SDS011;7791;47.246;9.648;2023-11-19T05:22:49;4.27;;;3.27;;
15385;SDS011;7791;47.246;9.648;2023-11-19T05:28:25;4.60;;;3.00;;
15385;SDS011;7791;47.246;9.648;2023-11-19T05:31:01;3.27;;;2.50;;
15385;SDS011;7791;47.246;9.648;2023-11-19T05:33:36;3.20;;;2.60;;
15385;SDS011;7791;47.246;9.648;2023-11-19T05:36:06;4.40;;;2.50;;
15385;SDS011;7791;47.246;9.648;2023-11-19T05:38:48;4.57;;;2.80;;
15385;SDS011;7791;47.246;9.648;2023-11-19T05:41:30;4.07;;;2.60;;
15385;SDS011;7791;47.246;9.648;2023-11-19T05:49:49;3.33;;;2.83;;
15385;SDS011;7791;47.246;9.648;2023-11-19T05:52:17;3.43;;;2.60;;
15385;SDS011;7791;47.246;9.648;2023-11-19T05:55:26;3.23;;;2.33;;
15385;SDS011;7791;47.246;9.648;2023-11-19T06:00:42;3.90;;;2.83;;
15385;SDS011;7791;47.246;9.648;2023-11-19T06:03:25;3.87;;;2.30;;
15385;SDS011;7791;47.246;9.648;2023-11-19T06:05:56;4.43;;;3.40;;
15385;SDS011;7791;47.246;9.648;2023-11-19T06:08:27;6.67;;;4.23;;
15385;SDS011;7791;47.246;9.648;2023-11-19T06:11:05;6.83;;;4.87;;
15385;SDS011;7791;47.246;9.648;2023-11-19T06:13:45;6.17;;;3.93;;
15385;SDS011;7791;47.246;9.648;2023-11-19T06:16:36;5.63;;;4.03;;
15385;SDS011;7791;47.246;9.648;2023-11-19T06:19:09;7.80;;;4.27;;
15385;SDS011;7791;47.246;9.648;2023-11-19T06:21:52;4.13;;;2.80;;
15385;SDS011;7791;47.246;9.648;2023-11-19T06:24:33;4.77;;;3.30;;
15385;SDS011;7791;47.246;9.648;2023-11-19T06:27:34;6.10;;;4.00;;
15385;SDS011;7791;47.246;9.648;2023-11-19T06:30:15;6.43;;;3.67;;
15385;SDS011;7791;47.246;9.648;2023-11-19T06:32:51;7.27;;;3.43;;
15385;SDS011;7791;47.246;9.648;2023-11-19T06:35:32;5.73;;;3.67;;
15385;SDS011;7791;47.246;9.648;2023-11-19T06:38:02;11.47;;;9.03;;
15385;SDS011;7791;47.246;9.648;2023-11-19T06:40:35;5.37;;;3.67;;
15385;SDS011;7791;47.246;9.648;2023-11-19T06:43:16;7.27;;;3.97;;
15385;SDS011;7791;47.246;9.648;2023-11-19T06:46:13;8.53;;;4.17;;
15385;SDS011;7791;47.246;9.648;2023-11-19T06:49:03;6.43;;;3.60;;
15385;SDS011;7791;47.246;9.648;2023-11-19T06:51:47;4.57;;;3.80;;
15385;SDS011;7791;47.246;9.648;2023-11-19T06:57:30;7.13;;;3.93;;
15385;SDS011;7791;47.246;9.648;2023-11-19T06:59:58;5.40;;;4.23;;
15385;SDS011;7791;47.246;9.648;2023-11-19T07:05:23;6.53;;;4.90;;
15385;SDS011;7791;47.246;9.648;2023-11-19T07:07:59;9.43;;;7.87;;
15385;SDS011;7791;47.246;9.648;2023-11-19T07:10:39;5.47;;;4.60;;
15385;SDS011;7791;47.246;9.648;2023-11-19T07:13:20;6.70;;;4.67;;
15385;SDS011;7791;47.246;9.648;2023-11-19T07:16:00;4.90;;;3.77;;
15385;SDS011;7791;47.246;9.648;2023-11-19T07:18:29;8.43;;;6.00;;
15385;SDS011;7791;47.246;9.648;2023-11-19T07:23:57;7.10;;;5.20;;
15385;SDS011;7791;47.246;9.648;2023-11-19T07:26:35;7.13;;;4.83;;
15385;SDS011;7791;47.246;9.648;2023-11-19T07:29:17;7.67;;;5.00;;
15385;SDS011;7791;47.246;9.648;2023-11-19T07:32:12;11.37;;;5.87;;
15385;SDS011;7791;47.246;9.648;2023-11-19T07:35:02;12.47;;;6.33;;
15385;SDS011;7791;47.246;9.648;2023-11-19T07:37:55;11.63;;;6.93;;
15385;SDS011;7791;47.246;9.648;2023-11-19T07:40:59;13.43;;;8.47;;
15385;SDS011;7791;47.246;9.648;2023-11-19T07:43:36;11.33;;;6.87;;
15385;SDS011;7791;47.246;9.648;2023-11-19T07:46:12;6.47;;;4.50;;
15385;SDS011;7791;47.246;9.648;2023-11-19T07:48:55;11.50;;;6.73;;
15385;SDS011;7791;47.246;9.648;2023-11-19T07:51:31;8.13;;;5.73;;
15385;SDS011;7791;47.246;9.648;2023-11-19T07:56:56;22.33;;;10.10;;
15385;SDS011;7791;47.246;9.648;2023-11-19T08:02:27;12.27;;;8.07;;
15385;SDS011;7791;47.246;9.648;2023-11-19T08:04:59;11.80;;;7.97;;
15385;SDS011;7791;47.246;9.648;2023-11-19T08:07:35;10.27;;;7.27;;
15385;SDS011;7791;47.246;9.648;2023-11-19T08:10:07;13.13;;;7.83;;
15385;SDS011;7791;47.246;9.648;2023-11-19T08:12:42;11.20;;;6.87;;
15385;SDS011;7791;47.246;9.648;2023-11-19T08:15:18;9.20;;;5.97;;
15385;SDS011;7791;47.246;9.648;2023-11-19T08:17:53;9.83;;;6.43;;
15385;SDS011;7791;47.246;9.648;2023-11-19T08:20:35;8.10;;;6.57;;
15385;SDS011;7791;47.246;9.648;2023-11-19T08:23:14;9.47;;;6.63;;
15385;SDS011;7791;47.246;9.648;2023-11-19T08:25:56;11.33;;;7.40;;
15385;SDS011;7791;47.246;9.648;2023-11-19T08:31:39;9.10;;;5.27;;
15385;SDS011;7791;47.246;9.648;2023-11-19T08:34:15;7.47;;;5.13;;
15385;SDS011;7791;47.246;9.648;2023-11-19T08:40:01;4.53;;;4.00;;
15385;SDS011;7791;47.246;9.648;2023-11-19T08:42:34;10.07;;;6.30;;
15385;SDS011;7791;47.246;9.648;2023-11-19T08:45:03;10.70;;;5.90;;
15385;SDS011;7791;47.246;9.648;2023-11-19T08:47:31;5.60;;;4.47;;
15385;SDS011;7791;47.246;9.648;2023-11-19T08:50:07;6.90;;;5.60;;
15385;SDS011;7791;47.246;9.648;2023-11-19T08:52:39;6.13;;;4.67;;
15385;SDS011;7791;47.246;9.648;2023-11-19T08:55:22;10.07;;;5.30;;
15385;SDS011;7791;47.246;9.648;2023-11-19T08:57:56;8.87;;;6.27;;
15385;SDS011;7791;47.246;9.648;2023-11-19T09:00:33;7.43;;;5.97;;
15385;SDS011;7791;47.246;9.648;2023-11-19T09:03:06;9.60;;;6.50;;
15385;SDS011;7791;47.246;9.648;2023-11-19T09:05:54;10.10;;;6.57;;
15385;SDS011;7791;47.246;9.648;2023-11-19T09:08:32;10.47;;;6.77;;
15385;SDS011;7791;47.246;9.648;2023-11-19T09:14:02;24.67;;;18.37;;
15385;SDS011;7791;47.246;9.648;2023-11-19T09:16:35;11.07;;;8.23;;
15385;SDS011;7791;47.246;9.648;2023-11-19T09:19:08;11.03;;;8.37;;
15385;SDS011;7791;47.246;9.648;2023-11-19T09:22:08;9.43;;;7.50;;
15385;SDS011;7791;47.246;9.648;2023-11-19T09:24:43;7.97;;;6.97;;
15385;SDS011;7791;47.246;9.648;2023-11-19T09:27:21;12.00;;;7.40;;
15385;SDS011;7791;47.246;9.648;2023-11-19T09:33:01;8.73;;;7.40;;
15385;SDS011;7791;47.246;9.648;2023-11-19T09:35:34;8.77;;;6.40;;
15385;SDS011;7791;47.246;9.648;2023-11-19T09:38:03;10.83;;;7.03;;
15385;SDS011;7791;47.246;9.648;2023-11-19T09:40:40;8.53;;;6.50;;
15385;SDS011;7791;47.246;9.648;2023-11-19T09:43:29;12.00;;;7.67;;
15385;SDS011;7791;47.246;9.648;2023-11-19T09:45:57;7.57;;;6.33;;
15385;SDS011;7791;47.246;9.648;2023-11-19T09:48:37;8.97;;;7.50;;
15385;SDS011;7791;47.246;9.648;2023-11-19T09:51:22;7.47;;;6.10;;
15385;SDS011;7791;47.246;9.648;2023-11-19T09:54:06;14.67;;;6.87;;
15385;SDS011;7791;47.246;9.648;2023-11-19T09:57:05;7.23;;;5.77;;
15385;SDS011;7791;47.246;9.648;2023-11-19T09:59:42;8.93;;;6.13;;
15385;SDS011;7791;47.246;9.648;2023-11-19T10:02:28;8.37;;;6.77;;
15385;SDS011;7791;47.246;9.648;2023-11-19T10:05:23;7.83;;;6.20;;
15385;SDS011;7791;47.246;9.648;2023-11-19T10:08:09;9.67;;;6.67;;
15385;SDS011;7791;47.246;9.648;2023-11-19T10:10:44;8.50;;;7.00;;
15385;SDS011;7791;47.246;9.648;2023-11-19T10:13:17;8.00;;;6.30;;
15385;SDS011;7791;47.246;9.648;2023-11-19T10:16:06;9.80;;;7.07;;
15385;SDS011;7791;47.246;9.648;2023-11-19T10:18:55;12.20;;;7.23;;
15385;SDS011;7791;47.246;9.648;2023-11-19T10:21:31;13.37;;;7.63;;
15385;SDS011;7791;47.246;9.648;2023-11-19T10:24:17;8.70;;;6.73;;
15385;SDS011;7791;47.246;9.648;2023-11-19T10:27:20;7.53;;;6.23;;
15385;SDS011;7791;47.246;9.648;2023-11-19T10:30:04;8.27;;;6.33;;
15385;SDS011;7791;47.246;9.648;2023-11-19T10:32:33;11.23;;;7.87;;
15385;SDS011;7791;47.246;9.648;2023-11-19T10:35:28;10.93;;;8.07;;
15385;SDS011;7791;47.246;9.648;2023-11-19T10:38:12;9.13;;;6.77;;
15385;SDS011;7791;47.246;9.648;2023-11-19T10:40:54;8.27;;;5.77;;
15385;SDS011;7791;47.246;9.648;2023-11-19T10:43:44;7.40;;;5.17;;
15385;SDS011;7791;47.246;9.648;2023-11-19T10:46:35;6.77;;;5.53;;
15385;SDS011;7791;47.246;9.648;2023-11-19T10:49:15;9.73;;;8.50;;
15385;SDS011;7791;47.246;9.648;2023-11-19T10:51:50;11.57;;;7.53;;
15385;SDS011;7791;47.246;9.648;2023-11-19T10:54:38;7.57;;;5.67;;
15385;SDS011;7791;47.246;9.648;2023-11-19T10:57:29;11.20;;;9.03;;
15385;SDS011;7791;47.246;9.648;2023-11-19T11:00:09;6.23;;;4.90;;
15385;SDS011;7791;47.246;9.648;2023-11-19T11:02:50;5.63;;;4.77;;
15385;SDS011;7791;47.246;9.648;2023-11-19T11:08:45;5.73;;;4.47;;
15385;SDS011;7791;47.246;9.648;2023-11-19T11:11:19;7.00;;;4.40;;
15385;SDS011;7791;47.246;9.648;2023-11-19T11:14:06;5.73;;;4.07;;
15385;SDS011;7791;47.246;9.648;2023-11-19T11:16:43;6.03;;;4.70;;
15385;SDS011;7791;47.246;9.648;2023-11-19T11:19:20;7.13;;;3.90;;
15385;SDS011;7791;47.246;9.648;2023-11-19T11:22:02;5.90;;;4.37;;
15385;SDS011;7791;47.246;9.648;2023-11-19T11:24:38;6.83;;;4.60;;
15385;SDS011;7791;47.246;9.648;2023-11-19T11:27:46;5.10;;;4.17;;
15385;SDS011;7791;47.246;9.648;2023-11-19T11:30:40;5.03;;;3.67;;
15385;SDS011;7791;47.246;9.648;2023-11-19T11:33:48;4.00;;;3.60;;
15385;SDS011;7791;47.246;9.648;2023-11-19T11:36:40;4.60;;;3.40;;
15385;SDS011;7791;47.246;9.648;2023-11-19T11:39:16;5.90;;;3.30;;
15385;SDS011;7791;47.246;9.648;2023-11-19T11:45:11;4.30;;;3.20;;
15385;SDS011;7791;47.246;9.648;2023-11-19T11:51:00;5.60;;;4.13;;
15385;SDS011;7791;47.246;9.648;2023-11-19T11:53:35;5.60;;;5.10;;
15385;SDS011;7791;47.246;9.648;2023-11-19T11:56:11;4.90;;;4.40;;
15385;SDS011;7791;47.246;9.648;2023-11-19T11:58:47;23.67;;;21.37;;
15385;SDS011;7791;47.246;9.648;2023-11-19T12:01:39;5.87;;;3.97;;
15385;SDS011;7791;47.246;9.648;2023-11-19T12:04:32;7.63;;;6.33;;
15385;SDS011;7791;47.246;9.648;2023-11-19T12:07:08;6.07;;;4.90;;
15385;SDS011;7791;47.246;9.648;2023-11-19T12:12:36;5.67;;;4.40;;
15385;SDS011;7791;47.246;9.648;2023-11-19T12:15:11;4.90;;;4.23;;
15385;SDS011;7791;47.246;9.648;2023-11-19T12:17:54;6.23;;;4.50;;
15385;SDS011;7791;47.246;9.648;2023-11-19T12:20:25;5.43;;;4.50;;
15385;SDS011;7791;47.246;9.648;2023-11-19T12:23:09;6.17;;;4.47;;
15385;SDS011;7791;47.246;9.648;2023-11-19T12:28:41;3.50;;;3.10;;
15385;SDS011;7791;47.246;9.648;2023-11-19T12:31:30;4.30;;;3.10;;
15385;SDS011;7791;47.246;9.648;2023-11-19T12:36:57;3.90;;;3.23;;
15385;SDS011;7791;47.246;9.648;2023-11-19T12:39:38;6.47;;;2.70;;
15385;SDS011;7791;47.246;9.648;2023-11-19T12:42:11;7.60;;;4.47;;
15385;SDS011;7791;47.246;9.648;2023-11-19T12:44:59;6.23;;;3.70;;
15385;SDS011;7791;47.246;9.648;2023-11-19T12:47:46;5.97;;;3.43;;
15385;SDS011;7791;47.246;9.648;2023-11-19T12:53:20;6.00;;;4.03;;
15385;SDS011;7791;47.246;9.648;2023-11-19T12:56:20;6.97;;;5.83;;
15385;SDS011;7791;47.246;9.648;2023-11-19T13:02:00;6.50;;;4.13;;
15385;SDS011;7791;47.246;9.648;2023-11-19T13:04:58;7.23;;;4.60;;
15385;SDS011;7791;47.246;9.648;2023-11-19T13:07:51;3.60;;;2.77;;
15385;SDS011;7791;47.246;9.648;2023-11-19T13:16:45;4.00;;;2.80;;
15385;SDS011;7791;47.246;9.648;2023-11-19T13:21:57;4.10;;;2.20;;
15385;SDS011;7791;47.246;9.648;2023-11-19T13:24:48;3.13;;;2.50;;
15385;SDS011;7791;47.246;9.648;2023-11-19T13:27:30;5.07;;;2.90;;
15385;SDS011;7791;47.246;9.648;2023-11-19T13:30:20;7.10;;;3.80;;
15385;SDS011;7791;47.246;9.648;2023-11-19T13:36:19;6.33;;;4.20;;
15385;SDS011;7791;47.246;9.648;2023-11-19T13:38:52;5.17;;;3.80;;
15385;SDS011;7791;47.246;9.648;2023-11-19T13:41:32;5.53;;;3.70;;
15385;SDS011;7791;47.246;9.648;2023-11-19T13:44:12;5.33;;;3.60;;
15385;SDS011;7791;47.246;9.648;2023-11-19T13:46:46;4.20;;;3.33;;
15385;SDS011;7791;47.246;9.648;2023-11-19T13:52:21;10.20;;;8.57;;
15385;SDS011;7791;47.246;9.648;2023-11-19T13:55:14;8.03;;;7.23;;
15385;SDS011;7791;47.246;9.648;2023-11-19T13:57:48;5.73;;;4.40;;
15385;SDS011;7791;47.246;9.648;2023-11-19T14:00:27;8.80;;;7.90;;
15385;SDS011;7791;47.246;9.648;2023-11-19T14:02:57;3.00;;;2.70;;
15385;SDS011;7791;47.246;9.648;2023-11-19T14:05:32;3.77;;;2.60;;
15385;SDS011;7791;47.246;9.648;2023-11-19T14:08:02;3.90;;;3.20;;
15385;SDS011;7791;47.246;9.648;2023-11-19T14:10:40;4.17;;;3.53;;
15385;SDS011;7791;47.246;9.648;2023-11-19T14:16:05;3.40;;;2.83;;
15385;SDS011;7791;47.246;9.648;2023-11-19T14:18:45;3.97;;;3.13;;
15385;SDS011;7791;47.246;9.648;2023-11-19T14:21:36;4.77;;;3.37;;
15385;SDS011;7791;47.246;9.648;2023-11-19T14:24:10;5.57;;;3.20;;
15385;SDS011;7791;47.246;9.648;2023-11-19T14:26:47;4.37;;;3.00;;
15385;SDS011;7791;47.246;9.648;2023-11-19T14:32:31;6.27;;;4.90;;
15385;SDS011;7791;47.246;9.648;2023-11-19T14:35:03;12.33;;;10.73;;
15385;SDS011;7791;47.246;9.648;2023-11-19T14:37:39;6.97;;;4.47;;
15385;SDS011;7791;47.246;9.648;2023-11-19T14:40:31;6.47;;;4.10;;
15385;SDS011;7791;47.246;9.648;2023-11-19T14:43:11;6.23;;;5.13;;
15385;SDS011;7791;47.246;9.648;2023-11-19T14:45:54;8.00;;;6.27;;
15385;SDS011;7791;47.246;9.648;2023-11-19T14:51:30;10.53;;;8.07;;
15385;SDS011;7791;47.246;9.648;2023-11-19T14:54:09;10.23;;;7.63;;
15385;SDS011;7791;47.246;9.648;2023-11-19T14:56:52;10.10;;;7.17;;
15385;SDS011;7791;47.246;9.648;2023-11-19T14:59:33;9.07;;;5.90;;
15385;SDS011;7791;47.246;9.648;2023-11-19T15:02:33;9.30;;;6.27;;
15385;SDS011;7791;47.246;9.648;2023-11-19T15:05:13;6.83;;;4.50;;
15385;SDS011;7791;47.246;9.648;2023-11-19T15:07:52;10.17;;;7.63;;
15385;SDS011;7791;47.246;9.648;2023-11-19T15:10:24;8.17;;;5.73;;
15385;SDS011;7791;47.246;9.648;2023-11-19T15:12:59;8.03;;;5.67;;
15385;SDS011;7791;47.246;9.648;2023-11-19T15:15:40;6.73;;;5.60;;
15385;SDS011;7791;47.246;9.648;2023-11-19T15:21:02;7.67;;;5.33;;
15385;SDS011;7791;47.246;9.648;2023-11-19T15:23:34;8.37;;;5.83;;
15385;SDS011;7791;47.246;9.648;2023-11-19T15:26:21;7.07;;;5.57;;
15385;SDS011;7791;47.246;9.648;2023-11-19T15:29:08;6.70;;;5.50;;
15385;SDS011;7791;47.246;9.648;2023-11-19T15:31:44;13.73;;;7.50;;
15385;SDS011;7791;47.246;9.648;2023-11-19T15:34:14;10.20;;;6.90;;
15385;SDS011;7791;47.246;9.648;2023-11-19T15:37:06;27.13;;;9.50;;
15385;SDS011;7791;47.246;9.648;2023-11-19T15:39:40;21.23;;;10.53;;
15385;SDS011;7791;47.246;9.648;2023-11-19T15:45:09;9.90;;;6.80;;
15385;SDS011;7791;47.246;9.648;2023-11-19T15:48:07;10.43;;;6.93;;
15385;SDS011;7791;47.246;9.648;2023-11-19T15:50:55;11.80;;;7.07;;
15385;SDS011;7791;47.246;9.648;2023-11-19T15:53:51;19.37;;;11.17;;
15385;SDS011;7791;47.246;9.648;2023-11-19T15:56:09;14.37;;;9.90;;
15385;SDS011;7791;47.246;9.648;2023-11-19T15:59:12;14.47;;;9.50;;
15385;SDS011;7791;47.246;9.648;2023-11-19T16:01:47;14.13;;;6.80;;
15385;SDS011;7791;47.246;9.648;2023-11-19T16:04:46;14.17;;;7.67;;
15385;SDS011;7791;47.246;9.648;2023-11-19T16:10:30;15.30;;;9.73;;
15385;SDS011;7791;47.246;9.648;2023-11-19T16:13:03;15.97;;;11.10;;
15385;SDS011;7791;47.246;9.648;2023-11-19T16:18:36;17.90;;;11.30;;
15385;SDS011;7791;47.246;9.648;2023-11-19T16:21:19;23.13;;;13.53;;
15385;SDS011;7791;47.246;9.648;2023-11-19T16:23:58;22.57;;;15.80;;
15385;SDS011;7791;47.246;9.648;2023-11-19T16:26:38;28.13;;;13.63;;
15385;SDS011;7791;47.246;9.648;2023-11-19T16:29:12;17.87;;;10.27;;
15385;SDS011;7791;47.246;9.648;2023-11-19T16:31:42;14.43;;;9.43;;
15385;SDS011;7791;47.246;9.648;2023-11-19T16:34:22;22.07;;;10.80;;
15385;SDS011;7791;47.246;9.648;2023-11-19T16:36:56;16.97;;;11.33;;
15385;SDS011;7791;47.246;9.648;2023-11-19T16:39:38;20.63;;;13.97;;
15385;SDS011;7791;47.246;9.648;2023-11-19T16:42:20;19.53;;;12.93;;
15385;SDS011;7791;47.246;9.648;2023-11-19T16:45:00;20.87;;;14.13;;
15385;SDS011;7791;47.246;9.648;2023-11-19T16:50:20;27.20;;;15.70;;
15385;SDS011;7791;47.246;9.648;2023-11-19T16:53:09;39.83;;;25.53;;
15385;SDS011;7791;47.246;9.648;2023-11-19T16:55:36;29.67;;;18.03;;
15385;SDS011;7791;47.246;9.648;2023-11-19T16:58:23;35.07;;;18.50;;
15385;SDS011;7791;47.246;9.648;2023-11-19T17:01:07;23.30;;;13.77;;
15385;SDS011;7791;47.246;9.648;2023-11-19T17:03:49;21.43;;;14.10;;
15385;SDS011;7791;47.246;9.648;2023-11-19T17:06:16;22.03;;;14.87;;
15385;SDS011;7791;47.246;9.648;2023-11-19T17:09:01;13.53;;;9.20;;
15385;SDS011;7791;47.246;9.648;2023-11-19T17:11:42;22.50;;;14.33;;
15385;SDS011;7791;47.246;9.648;2023-11-19T17:14:29;99.83;;;47.80;;
15385;SDS011;7791;47.246;9.648;2023-11-19T17:17:05;53.47;;;29.60;;
15385;SDS011;7791;47.246;9.648;2023-11-19T17:19:40;28.80;;;16.40;;
15385;SDS011;7791;47.246;9.648;2023-11-19T17:22:07;23.77;;;14.77;;
15385;SDS011;7791;47.246;9.648;2023-11-19T17:24:55;22.53;;;15.20;;
15385;SDS011;7791;47.246;9.648;2023-11-19T17:27:37;21.23;;;15.63;;
15385;SDS011;7791;47.246;9.648;2023-11-19T17:30:24;28.00;;;17.77;;
15385;SDS011;7791;47.246;9.648;2023-11-19T17:32:57;25.07;;;19.33;;
15385;SDS011;7791;47.246;9.648;2023-11-19T17:35:33;139.33;;;65.80;;
15385;SDS011;7791;47.246;9.648;2023-11-19T17:38:17;44.93;;;30.00;;
15385;SDS011;7791;47.246;9.648;2023-11-19T17:40:53;26.77;;;17.60;;
15385;SDS011;7791;47.246;9.648;2023-11-19T17:43:48;26.63;;;16.50;;
15385;SDS011;7791;47.246;9.648;2023-11-19T17:46:30;38.73;;;24.83;;
15385;SDS011;7791;47.246;9.648;2023-11-19T17:49:10;25.87;;;15.40;;
15385;SDS011;7791;47.246;9.648;2023-11-19T17:51:49;25.57;;;17.53;;
15385;SDS011;7791;47.246;9.648;2023-11-19T17:54:16;25.67;;;19.40;;
15385;SDS011;7791;47.246;9.648;2023-11-19T17:57:20;16.63;;;12.17;;
15385;SDS011;7791;47.246;9.648;2023-11-19T17:59:50;19.77;;;13.37;;
15385;SDS011;7791;47.246;9.648;2023-11-19T18:02:48;25.20;;;13.63;;
15385;SDS011;7791;47.246;9.648;2023-11-19T18:05:38;29.57;;;19.60;;
15385;SDS011;7791;47.246;9.648;2023-11-19T18:08:15;27.77;;;20.47;;
15385;SDS011;7791;47.246;9.648;2023-11-19T18:10:53;26.33;;;16.17;;
15385;SDS011;7791;47.246;9.648;2023-11-19T18:13:39;25.43;;;17.60;;
15385;SDS011;7791;47.246;9.648;2023-11-19T18:16:12;26.60;;;17.73;;
15385;SDS011;7791;47.246;9.648;2023-11-19T18:21:38;15.77;;;14.07;;
15385;SDS011;7791;47.246;9.648;2023-11-19T18:24:12;19.13;;;12.77;;
15385;SDS011;7791;47.246;9.648;2023-11-19T18:26:58;15.70;;;10.93;;
15385;SDS011;7791;47.246;9.648;2023-11-19T18:29:32;13.30;;;8.97;;
15385;SDS011;7791;47.246;9.648;2023-11-19T18:32:20;17.30;;;12.37;;
15385;SDS011;7791;47.246;9.648;2023-11-19T18:37:52;12.87;;;9.47;;
15385;SDS011;7791;47.246;9.648;2023-11-19T18:40:31;28.20;;;25.13;;
15385;SDS011;7791;47.246;9.648;2023-11-19T18:43:07;93.10;;;78.17;;